createdAt,value
2018-11-25T00:01:41.659Z,44.27
2018-11-25T00:04:09.995Z,39.40
2018-11-25T00:06:38.316Z,42.70
2018-11-25T00:09:08.452Z,37.17
2018-11-25T00:11:36.754Z,38.33
2018-11-25T00:14:05.062Z,33.30
2018-11-25T00:16:33.329Z,41.33
2018-11-25T00:19:01.679Z,38.57
2018-11-25T00:21:30.051Z,35.07
2018-11-25T00:23:58.388Z,40.03
2018-11-25T00:26:27.110Z,35.57
2018-11-25T00:28:55.447Z,39.80
2018-11-25T00:31:23.743Z,36.43
2018-11-25T00:33:52.090Z,36.47
2018-11-25T00:36:20.439Z,35.20
2018-11-25T00:38:48.898Z,36.40
2018-11-25T00:41:18.175Z,35.43
2018-11-25T00:43:46.680Z,37.00
2018-11-25T00:46:14.973Z,35.47
2018-11-25T00:48:43.281Z,38.13
2018-11-25T00:51:11.696Z,40.97
2018-11-25T00:53:40.007Z,35.40
2018-11-25T00:56:08.518Z,35.13
2018-11-25T00:58:36.934Z,38.83
2018-11-25T01:01:05.589Z,37.90
2018-11-25T01:03:33.844Z,34.47
2018-11-25T01:06:02.122Z,41.83
2018-11-25T01:08:30.402Z,38.47
2018-11-25T01:10:58.697Z,37.70
2018-11-25T01:13:27.655Z,44.97
2018-11-25T01:15:56.593Z,42.97
2018-11-25T01:18:24.982Z,41.23
2018-11-25T01:20:53.391Z,44.70
2018-11-25T01:23:22.371Z,48.07
2018-11-25T01:25:50.709Z,50.50
2018-11-25T01:28:18.998Z,43.63
2018-11-25T01:30:47.333Z,40.83
2018-11-25T01:33:15.815Z,43.50
2018-11-25T01:35:44.118Z,43.00
2018-11-25T01:38:12.417Z,44.00
2018-11-25T01:40:40.862Z,57.90
2018-11-25T01:43:09.252Z,42.57
2018-11-25T01:45:37.793Z,40.17
2018-11-25T01:48:06.169Z,34.97
2018-11-25T01:50:34.517Z,40.93
2018-11-25T01:53:02.788Z,37.03
2018-11-25T01:55:31.659Z,39.93
2018-11-25T01:57:59.954Z,39.63
2018-11-25T02:00:28.332Z,36.43
2018-11-25T02:02:56.675Z,39.93
2018-11-25T02:05:24.992Z,36.87
2018-11-25T02:07:53.297Z,38.43
2018-11-25T02:10:21.615Z,33.80
2018-11-25T02:12:49.981Z,35.00
2018-11-25T02:15:18.220Z,35.93
2018-11-25T02:17:46.543Z,31.97
2018-11-25T02:20:18.332Z,32.00
2018-11-25T02:22:46.790Z,34.60
2018-11-25T02:25:15.086Z,41.03
2018-11-25T02:27:43.811Z,34.60
2018-11-25T02:30:14.736Z,31.67
2018-11-25T02:32:43.019Z,28.60
2018-11-25T02:35:12.370Z,32.73
2018-11-25T02:37:40.684Z,32.37
2018-11-25T02:40:11.997Z,32.63
2018-11-25T02:42:40.411Z,26.40
2018-11-25T02:45:15.164Z,32.93
2018-11-25T02:47:43.980Z,32.53
2018-11-25T02:50:23.896Z,25.90
2018-11-25T02:52:54.165Z,27.63
2018-11-25T02:55:23.541Z,27.70
2018-11-25T02:57:52.019Z,27.70
2018-11-25T03:00:20.360Z,26.07
2018-11-25T03:02:48.907Z,24.13
2018-11-25T03:05:17.261Z,28.23
2018-11-25T03:07:45.607Z,33.60
2018-11-25T03:10:14.084Z,28.83
2018-11-25T03:12:42.406Z,28.60
2018-11-25T03:15:12.072Z,24.07
2018-11-25T03:17:40.399Z,27.40
2018-11-25T03:20:11.155Z,26.40
2018-11-25T03:22:39.569Z,27.00
2018-11-25T03:25:11.195Z,28.57
2018-11-25T03:27:39.467Z,32.57
2018-11-25T03:30:11.164Z,29.57
2018-11-25T03:32:39.486Z,29.83
2018-11-25T03:35:09.248Z,31.60
2018-11-25T03:37:37.875Z,29.63
2018-11-25T03:40:08.706Z,30.87
2018-11-25T03:42:37.082Z,30.17
2018-11-25T03:45:08.662Z,30.20
2018-11-25T03:47:37.071Z,28.70
2018-11-25T03:50:06.553Z,34.47
2018-11-25T03:52:34.966Z,38.90
2018-11-25T03:55:03.381Z,41.93
2018-11-25T03:57:31.709Z,33.70
2018-11-25T04:00:00.067Z,45.30
2018-11-25T04:02:28.366Z,35.77
2018-11-25T04:04:56.700Z,41.50
2018-11-25T04:07:24.977Z,53.53
2018-11-25T04:09:53.292Z,41.70
2018-11-25T04:12:21.592Z,43.83
2018-11-25T04:14:50.895Z,47.70
2018-11-25T04:17:19.267Z,58.93
2018-11-25T04:19:47.593Z,63.83
2018-11-25T04:22:15.973Z,52.33
2018-11-25T04:24:45.027Z,61.57
2018-11-25T04:27:13.416Z,51.13
2018-11-25T04:29:41.833Z,57.50
2018-11-25T04:32:10.149Z,63.70
2018-11-25T04:34:38.727Z,45.23
2018-11-25T04:37:07.219Z,63.20
2018-11-25T04:39:35.480Z,72.60
2018-11-25T04:42:03.803Z,58.37
2018-11-25T04:44:33.463Z,96.43
2018-11-25T04:47:01.900Z,53.70
2018-11-25T04:49:30.235Z,154.90
2018-11-25T04:51:58.807Z,72.53
2018-11-25T04:54:27.120Z,62.30
2018-11-25T04:56:55.406Z,117.90
2018-11-25T04:59:24.348Z,57.97
2018-11-25T05:01:53.042Z,69.43
2018-11-25T05:04:21.323Z,66.63
2018-11-25T05:06:49.601Z,49.77
2018-11-25T05:09:17.861Z,59.33
2018-11-25T05:11:46.569Z,53.30
2018-11-25T05:14:14.914Z,43.57
2018-11-25T05:16:43.374Z,57.40
2018-11-25T05:19:11.780Z,45.20
2018-11-25T05:21:40.157Z,45.30
2018-11-25T05:24:08.457Z,51.40
2018-11-25T05:26:36.765Z,49.50
2018-11-25T05:29:06.346Z,47.57
2018-11-25T05:31:34.706Z,53.47
2018-11-25T05:34:03.002Z,50.57
2018-11-25T05:36:31.311Z,50.83
2018-11-25T05:38:59.568Z,51.97
2018-11-25T05:41:27.864Z,53.63
2018-11-25T05:43:56.250Z,48.67
2018-11-25T05:46:24.525Z,58.50
2018-11-25T05:48:53.042Z,52.53
2018-11-25T05:51:21.345Z,55.87
2018-11-25T05:53:49.739Z,52.47
2018-11-25T05:56:18.077Z,48.53
2018-11-25T05:58:46.378Z,48.47
2018-11-25T06:01:14.684Z,50.17
2018-11-25T06:03:43.558Z,46.60
2018-11-25T06:06:11.842Z,49.97
2018-11-25T06:08:40.178Z,38.97
2018-11-25T06:11:08.878Z,38.80
2018-11-25T06:13:37.212Z,44.87
2018-11-25T06:16:05.863Z,44.73
2018-11-25T06:18:34.217Z,40.57
2018-11-25T06:21:02.617Z,49.63
2018-11-25T06:23:30.924Z,40.20
2018-11-25T06:25:59.348Z,42.80
2018-11-25T06:28:27.686Z,44.90
2018-11-25T06:30:56.120Z,45.80
2018-11-25T06:33:24.551Z,52.77
2018-11-25T06:35:53.020Z,49.27
2018-11-25T06:38:21.337Z,47.13
2018-11-25T06:40:49.753Z,53.00
2018-11-25T06:43:17.996Z,46.83
2018-11-25T06:45:46.278Z,50.07
2018-11-25T06:48:14.607Z,49.83
2018-11-25T06:50:43.081Z,49.57
2018-11-25T06:53:11.349Z,53.30
2018-11-25T06:55:39.918Z,47.80
2018-11-25T06:58:08.267Z,38.73
2018-11-25T07:00:36.639Z,46.33
2018-11-25T07:03:05.083Z,52.37
2018-11-25T07:05:34.579Z,50.67
2018-11-25T07:08:02.920Z,46.47
2018-11-25T07:10:31.255Z,62.63
2018-11-25T07:12:59.593Z,54.07
2018-11-25T07:15:27.876Z,51.27
2018-11-25T07:17:56.201Z,54.20
2018-11-25T07:20:24.460Z,52.20
2018-11-25T07:22:54.137Z,49.60
2018-11-25T07:25:23.240Z,42.63
2018-11-25T07:27:52.080Z,44.50
2018-11-25T07:30:23.426Z,70.87
2018-11-25T07:32:51.816Z,43.17
2018-11-25T07:35:20.353Z,50.50
2018-11-25T07:37:48.699Z,46.43
2018-11-25T07:40:18.158Z,83.50
2018-11-25T07:42:46.675Z,46.73
2018-11-25T07:45:18.855Z,52.63
2018-11-25T07:47:48.343Z,68.87
2018-11-25T07:50:16.796Z,48.43
2018-11-25T07:52:46.179Z,45.47
2018-11-25T07:55:15.626Z,39.53
2018-11-25T07:57:44.514Z,35.57
2018-11-25T08:00:16.039Z,39.63
2018-11-25T08:02:44.542Z,53.70
2018-11-25T08:05:14.825Z,60.37
2018-11-25T08:07:43.099Z,45.50
2018-11-25T08:10:13.356Z,39.77
2018-11-25T08:12:41.692Z,36.97
2018-11-25T08:15:11.991Z,39.73
2018-11-25T08:17:40.396Z,39.97
2018-11-25T08:20:10.858Z,36.47
2018-11-25T08:22:39.258Z,47.20
2018-11-25T08:25:10.104Z,43.87
2018-11-25T08:27:38.389Z,45.23
2018-11-25T08:30:09.236Z,41.40
2018-11-25T08:32:37.509Z,45.33
2018-11-25T08:35:06.958Z,36.50
2018-11-25T08:37:35.270Z,38.40
2018-11-25T08:40:03.903Z,39.00
2018-11-25T08:42:32.381Z,37.87
2018-11-25T08:45:00.657Z,37.03
2018-11-25T08:47:28.953Z,37.90
2018-11-25T08:49:57.254Z,38.20
2018-11-25T08:52:25.505Z,42.90
2018-11-25T08:54:54.932Z,34.13
2018-11-25T08:57:22.134Z,39.57
2018-11-25T08:59:50.783Z,33.97
2018-11-25T09:02:19.342Z,32.50
2018-11-25T09:04:47.710Z,37.37
2018-11-25T09:07:15.987Z,35.37
2018-11-25T09:09:44.340Z,39.17
2018-11-25T09:12:12.683Z,36.47
2018-11-25T09:14:40.940Z,33.40
2018-11-25T09:17:10.492Z,40.37
2018-11-25T09:19:38.787Z,37.60
2018-11-25T09:22:07.069Z,44.57
2018-11-25T09:24:35.464Z,43.70
2018-11-25T09:27:03.853Z,48.30
2018-11-25T09:29:32.099Z,44.07
2018-11-25T09:32:00.502Z,46.90
2018-11-25T09:34:28.802Z,44.87
2018-11-25T09:36:57.254Z,57.80
2018-11-25T09:39:25.525Z,53.40
2018-11-25T09:41:53.795Z,59.50
2018-11-25T09:44:22.207Z,54.57
2018-11-25T09:46:50.503Z,46.37
2018-11-25T09:49:19.084Z,55.20
2018-11-25T09:51:47.398Z,50.43
2018-11-25T09:54:15.656Z,49.83
2018-11-25T09:56:44.046Z,51.53
2018-11-25T09:59:12.351Z,50.77
2018-11-25T10:01:40.965Z,50.10
2018-11-25T10:04:09.380Z,53.30
2018-11-25T10:06:38.089Z,49.33
2018-11-25T10:09:08.535Z,48.17
2018-11-25T10:11:37.079Z,49.60
2018-11-25T10:14:05.740Z,48.57
2018-11-25T10:16:34.599Z,54.20
2018-11-25T10:19:03.391Z,50.83
2018-11-25T10:21:32.954Z,46.33
2018-11-25T10:24:01.490Z,47.63
2018-11-25T10:26:29.837Z,53.00
2018-11-25T10:28:58.116Z,56.40
2018-11-25T10:31:26.564Z,54.23
2018-11-25T10:33:54.876Z,49.80
2018-11-25T10:36:23.063Z,49.00
2018-11-25T10:38:51.428Z,44.90
2018-11-25T10:41:20.410Z,46.50
2018-11-25T10:43:48.836Z,47.63
2018-11-25T10:46:18.232Z,46.00
2018-11-25T10:48:46.480Z,42.33
2018-11-25T10:51:14.842Z,44.17
2018-11-25T10:53:43.232Z,44.80
2018-11-25T10:56:11.400Z,46.80
2018-11-25T10:58:39.748Z,46.13
2018-11-25T11:01:13.442Z,45.90
2018-11-25T11:03:47.792Z,41.77
2018-11-25T11:06:21.626Z,37.90
2018-11-25T11:08:50.069Z,41.87
2018-11-25T11:11:18.660Z,41.50
2018-11-25T11:13:47.524Z,41.77
2018-11-25T11:16:16.149Z,42.20
2018-11-25T11:18:44.814Z,38.47
2018-11-25T11:21:13.247Z,48.30
2018-11-25T11:23:41.876Z,41.70
2018-11-25T11:26:27.234Z,39.73
2018-11-25T11:28:56.292Z,46.13
2018-11-25T11:31:24.873Z,38.43
2018-11-25T11:33:53.298Z,37.73
2018-11-25T11:36:21.716Z,33.90
2018-11-25T11:38:50.147Z,36.20
2018-11-25T11:41:18.602Z,31.47
2018-11-25T11:43:47.025Z,33.60
2018-11-25T11:46:15.361Z,32.73
2018-11-25T11:48:43.879Z,32.23
2018-11-25T11:51:12.200Z,34.97
2018-11-25T11:53:40.663Z,33.17
2018-11-25T11:56:09.013Z,27.87
2018-11-25T11:58:37.415Z,25.47
2018-11-25T12:01:07.736Z,25.90
2018-11-25T12:03:36.838Z,30.67
2018-11-25T12:06:05.491Z,28.07
2018-11-25T12:08:33.824Z,24.97
2018-11-25T12:11:02.359Z,26.10
2018-11-25T12:13:30.733Z,28.90
2018-11-25T12:16:00.320Z,30.80
2018-11-25T12:18:28.744Z,26.53
2018-11-25T12:20:57.693Z,30.43
2018-11-25T12:23:26.036Z,29.63
2018-11-25T12:25:54.752Z,29.90
2018-11-25T12:28:23.101Z,33.83
2018-11-25T12:30:51.563Z,32.13
2018-11-25T12:33:20.077Z,32.23
2018-11-25T12:35:48.566Z,30.00
2018-11-25T12:38:16.914Z,29.10
2018-11-25T12:40:45.422Z,28.60
2018-11-25T12:43:13.763Z,28.93
2018-11-25T12:45:42.108Z,33.33
2018-11-25T12:48:10.446Z,30.97
2018-11-25T12:50:38.743Z,30.00
2018-11-25T12:53:07.266Z,33.47
2018-11-25T12:55:35.619Z,28.00
2018-11-25T12:58:04.275Z,29.13
2018-11-25T13:00:36.032Z,28.83
2018-11-25T13:03:04.357Z,26.50
2018-11-25T13:05:32.780Z,32.57
2018-11-25T13:08:01.323Z,33.67
2018-11-25T13:10:30.707Z,34.07
2018-11-25T13:12:59.093Z,34.27
2018-11-25T13:15:27.470Z,32.90
2018-11-25T13:17:56.790Z,29.00
2018-11-25T13:20:25.135Z,34.77
2018-11-25T13:22:53.507Z,33.77
2018-11-25T13:25:21.844Z,30.40
2018-11-25T13:27:50.259Z,34.63
2018-11-25T13:30:22.897Z,30.63
2018-11-25T13:32:53.732Z,32.10
2018-11-25T13:35:22.685Z,34.90
2018-11-25T13:37:51.255Z,31.87
2018-11-25T13:40:20.694Z,30.43
2018-11-25T13:42:49.155Z,30.47
2018-11-25T13:45:18.629Z,26.70
2018-11-25T13:47:47.674Z,27.43
2018-11-25T13:50:16.433Z,30.43
2018-11-25T13:52:45.316Z,27.90
2018-11-25T13:55:18.251Z,26.80
2018-11-25T13:57:47.670Z,26.60
2018-11-25T14:00:20.603Z,25.20
2018-11-25T14:02:49.781Z,23.87
2018-11-25T14:05:18.687Z,24.57
2018-11-25T14:07:47.400Z,24.43
2018-11-25T14:10:19.347Z,24.00
2018-11-25T14:12:47.907Z,27.07
2018-11-25T14:15:16.353Z,26.30
2018-11-25T14:17:46.067Z,21.87
2018-11-25T14:20:14.575Z,24.50
2018-11-25T14:22:43.287Z,22.87
2018-11-25T14:25:13.326Z,26.07
2018-11-25T14:27:50.233Z,21.50
2018-11-25T14:30:21.521Z,22.33
2018-11-25T14:32:50.584Z,21.47
2018-11-25T14:35:19.039Z,25.03
2018-11-25T14:37:47.367Z,21.30
2018-11-25T14:40:17.228Z,23.10
2018-11-25T14:42:45.526Z,24.07
2018-11-25T14:45:15.836Z,25.23
2018-11-25T14:47:44.097Z,22.33
2018-11-25T14:50:16.644Z,23.87
2018-11-25T14:52:46.325Z,22.73
2018-11-25T14:55:15.430Z,23.40
2018-11-25T14:57:43.890Z,25.40
2018-11-25T15:00:16.490Z,19.90
2018-11-25T15:02:46.221Z,19.17
2018-11-25T15:05:19.910Z,24.97
2018-11-25T15:07:48.996Z,23.87
2018-11-25T15:10:17.741Z,21.87
2018-11-25T15:12:46.387Z,23.10
2018-11-25T15:15:15.471Z,28.60
2018-11-25T15:17:44.640Z,25.80
2018-11-25T15:20:13.403Z,23.60
2018-11-25T15:22:43.947Z,24.67
2018-11-25T15:25:16.935Z,27.73
2018-11-25T15:27:45.647Z,26.00
2018-11-25T15:30:14.157Z,23.43
2018-11-25T15:32:43.015Z,25.37
2018-11-25T15:35:13.294Z,26.27
2018-11-25T15:37:43.520Z,26.47
2018-11-25T15:40:18.882Z,24.83
2018-11-25T15:42:47.468Z,25.10
2018-11-25T15:45:16.556Z,26.00
2018-11-25T15:47:47.827Z,22.70
2018-11-25T15:50:19.493Z,26.73
2018-11-25T15:52:48.606Z,27.10
2018-11-25T15:55:17.358Z,24.23
2018-11-25T15:57:45.619Z,19.40
2018-11-25T16:00:16.327Z,22.93
2018-11-25T16:02:44.707Z,21.20
2018-11-25T16:05:21.620Z,33.17
2018-11-25T16:07:50.673Z,25.50
2018-11-25T16:10:19.124Z,26.13
2018-11-25T16:12:48.976Z,22.57
2018-11-25T16:15:18.592Z,26.10
2018-11-25T16:17:47.001Z,20.93
2018-11-25T16:20:16.497Z,25.00
2018-11-25T16:22:47.755Z,22.83
2018-11-25T16:25:19.996Z,21.90
2018-11-25T16:27:50.348Z,25.73
2018-11-25T16:30:18.813Z,26.43
2018-11-25T16:32:47.215Z,52.27
2018-11-25T16:35:15.593Z,47.67
2018-11-25T16:37:43.925Z,33.33
2018-11-25T16:40:15.592Z,29.30
2018-11-25T16:42:44.017Z,26.90
2018-11-25T16:45:15.979Z,25.40
2018-11-25T16:47:44.257Z,22.53
2018-11-25T16:50:14.202Z,21.50
2018-11-25T16:52:42.588Z,21.73
2018-11-25T16:55:11.962Z,22.67
2018-11-25T16:57:40.600Z,24.00
2018-11-25T17:00:13.497Z,19.13
2018-11-25T17:02:41.761Z,24.40
2018-11-25T17:05:18.560Z,19.50
2018-11-25T17:07:48.552Z,22.07
2018-11-25T17:10:17.064Z,22.10
2018-11-25T17:12:45.497Z,23.67
2018-11-25T17:15:16.659Z,23.60
2018-11-25T17:17:44.979Z,23.83
2018-11-25T17:20:13.264Z,22.10
2018-11-25T17:22:41.535Z,26.03
2018-11-25T17:25:11.998Z,24.70
2018-11-25T17:27:39.705Z,31.43
2018-11-25T17:30:13.724Z,30.63
2018-11-25T17:32:42.711Z,24.57
2018-11-25T17:35:17.037Z,25.07
2018-11-25T17:37:45.696Z,26.13
2018-11-25T17:40:14.686Z,23.07
2018-11-25T17:42:43.434Z,25.50
2018-11-25T17:45:12.996Z,22.10
2018-11-25T17:47:42.587Z,28.87
2018-11-25T17:50:16.491Z,27.70
2018-11-25T17:52:45.650Z,22.90
2018-11-25T17:55:14.719Z,23.37
2018-11-25T17:57:43.457Z,31.97
2018-11-25T18:00:17.772Z,27.67
2018-11-25T18:02:47.572Z,27.33
2018-11-25T18:05:17.756Z,23.80
2018-11-25T18:07:47.313Z,25.90
2018-11-25T18:10:16.479Z,29.63
2018-11-25T18:12:45.038Z,30.60
2018-11-25T18:15:16.045Z,25.67
2018-11-25T18:17:50.984Z,30.70
2018-11-25T18:20:20.859Z,27.40
2018-11-25T18:22:49.930Z,33.47
2018-11-25T18:25:18.535Z,31.00
2018-11-25T18:27:47.154Z,30.30
2018-11-25T18:30:16.902Z,26.83
2018-11-25T18:32:45.972Z,26.80
2018-11-25T18:35:14.550Z,23.13
2018-11-25T18:37:43.189Z,26.60
2018-11-25T18:40:13.169Z,30.80
2018-11-25T18:42:42.217Z,30.53
2018-11-25T18:45:16.341Z,32.83
2018-11-25T18:47:46.481Z,38.57
2018-11-25T18:50:15.733Z,44.77
2018-11-25T18:52:46.042Z,28.13
2018-11-25T18:55:13.279Z,34.33
2018-11-25T18:57:42.163Z,31.37
2018-11-25T19:00:16.305Z,25.97
2018-11-25T19:02:45.235Z,28.10
2018-11-25T19:05:14.747Z,25.73
2018-11-25T19:07:44.860Z,24.37
2018-11-25T19:10:16.938Z,27.00
2018-11-25T19:12:47.171Z,29.20
2018-11-25T19:15:19.723Z,28.80
2018-11-25T19:17:48.888Z,28.37
2018-11-25T19:20:26.273Z,29.20
2018-11-25T19:22:56.574Z,26.73
2018-11-25T19:25:25.506Z,24.77
2018-11-25T19:27:56.247Z,26.90
2018-11-25T19:30:26.810Z,28.67
2018-11-25T19:32:54.099Z,31.20
2018-11-25T19:35:23.173Z,33.07
2018-11-25T19:37:52.627Z,26.70
2018-11-25T19:40:25.099Z,26.63
2018-11-25T19:42:54.312Z,26.37
2018-11-25T19:45:25.170Z,27.43
2018-11-25T19:47:54.640Z,31.73
2018-11-25T19:50:30.877Z,32.53
2018-11-25T19:52:59.337Z,26.37
2018-11-25T19:55:27.836Z,28.40
2018-11-25T19:57:56.901Z,24.77
2018-11-25T20:00:26.170Z,27.87
2018-11-25T20:02:55.374Z,29.00
2018-11-25T20:05:25.309Z,28.17
2018-11-25T20:07:53.761Z,26.87
2018-11-25T20:10:23.851Z,25.77
2018-11-25T20:12:55.549Z,24.43
2018-11-25T20:15:25.185Z,26.80
2018-11-25T20:17:54.789Z,30.80
2018-11-25T20:20:25.731Z,27.53
2018-11-25T20:22:55.002Z,24.10
2018-11-25T20:25:23.762Z,31.97
2018-11-25T20:27:54.418Z,25.67
2018-11-25T20:30:26.188Z,28.90
2018-11-25T20:33:00.211Z,25.87
2018-11-25T20:35:29.519Z,29.53
2018-11-25T20:38:03.410Z,31.37
2018-11-25T20:40:32.855Z,25.43
2018-11-25T20:43:01.806Z,24.63
2018-11-25T20:45:39.029Z,26.17
2018-11-25T20:48:05.139Z,29.20
2018-11-25T20:50:33.723Z,27.33
2018-11-25T20:53:07.473Z,26.13
2018-11-25T20:55:36.792Z,26.30
2018-11-25T20:58:07.282Z,26.87
2018-11-25T21:00:37.069Z,26.53
2018-11-25T21:03:08.323Z,27.80
2018-11-25T21:05:36.738Z,29.83
2018-11-25T21:08:06.324Z,28.63
2018-11-25T21:10:34.748Z,28.00
2018-11-25T21:13:03.232Z,29.47
2018-11-25T21:15:32.536Z,27.80
2018-11-25T21:18:01.882Z,30.70
2018-11-25T21:20:31.332Z,29.47
2018-11-25T21:22:59.775Z,30.50
2018-11-25T21:25:29.256Z,29.70
2018-11-25T21:27:57.618Z,30.93
2018-11-25T21:30:27.234Z,30.03
2018-11-25T21:32:56.952Z,24.70
2018-11-25T21:35:25.756Z,25.73
2018-11-25T21:37:54.082Z,30.43
2018-11-25T21:40:23.690Z,30.30
2018-11-25T21:42:52.203Z,28.80
2018-11-25T21:45:21.190Z,33.77
2018-11-25T21:47:49.974Z,28.33
2018-11-25T21:50:21.846Z,27.70
2018-11-25T21:52:50.167Z,28.07
2018-11-25T21:55:19.049Z,25.20
2018-11-25T21:57:47.383Z,30.90
2018-11-25T22:00:17.817Z,27.27
2018-11-25T22:02:46.418Z,30.40
2018-11-25T22:05:15.124Z,28.40
2018-11-25T22:07:43.500Z,26.33
2018-11-25T22:10:14.037Z,32.93
2018-11-25T22:12:42.971Z,28.80
2018-11-25T22:15:12.922Z,28.73
2018-11-25T22:17:41.994Z,30.47
2018-11-25T22:20:11.337Z,25.93
2018-11-25T22:22:39.772Z,30.63
2018-11-25T22:25:09.244Z,26.07
2018-11-25T22:27:37.519Z,29.67
2018-11-25T22:30:09.353Z,31.43
2018-11-25T22:32:37.681Z,32.40
2018-11-25T22:35:10.050Z,33.47
2018-11-25T22:37:38.539Z,26.63
2018-11-25T22:40:08.878Z,28.13
2018-11-25T22:42:37.985Z,30.97
2018-11-25T22:45:08.221Z,27.60
2018-11-25T22:47:36.831Z,35.17
2018-11-25T22:50:13.940Z,29.00
2018-11-25T22:52:42.430Z,29.00
2018-11-25T22:55:13.342Z,28.97
2018-11-25T22:57:41.691Z,28.53
2018-11-25T23:00:41.233Z,28.77
2018-11-25T23:03:09.689Z,26.30
2018-11-25T23:05:49.972Z,25.50
2018-11-25T23:08:18.331Z,28.13
2018-11-25T23:10:46.750Z,30.17
2018-11-25T23:13:15.060Z,30.73
2018-11-25T23:15:43.340Z,29.00
2018-11-25T23:18:11.705Z,28.70
2018-11-25T23:20:40.131Z,28.07
2018-11-25T23:23:08.455Z,30.53
2018-11-25T23:25:36.963Z,26.47
2018-11-25T23:28:05.936Z,25.13
2018-11-25T23:30:34.228Z,28.23
2018-11-25T23:33:02.558Z,30.80
2018-11-25T23:35:32.102Z,22.60
2018-11-25T23:38:00.522Z,28.20
2018-11-25T23:40:28.959Z,29.40
2018-11-25T23:42:57.555Z,25.40
2018-11-25T23:45:25.875Z,30.10
2018-11-25T23:47:54.163Z,23.37
2018-11-25T23:50:22.588Z,29.70
2018-11-25T23:52:50.919Z,29.13
2018-11-25T23:55:19.193Z,22.77
2018-11-25T23:57:47.484Z,24.50
